Terminal Aerodrome Forecast
Issued by NWS St Louis, MO

Home | Current Version | Previous Version | Text Only | Print | Product List | Glossary On
Versions: 1 2 3 4 5 6 7 8 9 10 11 12 13 14 15 16 17 18 19 20 21 22 23 24 25 26
000
FTUS43 KLSX 292059 AAB
TAFCOU
TAF AMD
KCOU 292059Z 2921/3018 13015G25KT P6SM BKN015
     FM292300 11013G22KT 5SM -SHRA OVC025
      TEMPO 2923/3002 VRB20G35KT 2SM +TSRA OVC007CB
     FM300200 11012G19KT 4SM -SHRA OVC015
     FM300600 12009KT 5SM BR VCSH OVC025
     FM301500 17007KT 3SM -SHRA VCTS OVC020CB=

USA.gov is the U.S. government's official web portal to all federal, state and local government web resources and services.